CFG2JY EDDF-LEPA
Flight info
| Callsign | CFG2JY |
|---|---|
| Flight time | 1h 52m |
| Altitude | 35000 |
| Route | ANEKI2L ANEKI Y163 HERBI Y164 MOPAN DCT LUTIX DCT BENOT DCT NEMOS DCT GEVEA DCT INCUS DCT BALSI DCT RETNO DCT TUPOX DCT MTG DCT DIVKO DCT VATIR DCT PIVUS N852 VERSO L129 LUNIK |
| Aircraft | A21N/M-SBDE3FGHIJ1J4J7LORVWXYZ/SB2D1G1 |
Departure
| Time | 2026-05-05 04:31 |
|---|---|
| Airport | Frankfurt Main Airport (EDDF) |
Arrival
| Time | 2026-05-05 06:23 |
|---|---|
| Airport | Palma de Mallorca Airport (LEPA) |
| Time | Latitude | Longitude | Altitude | Speed | Heading |
|---|---|---|---|---|---|
| 2026-05-05 03:50 | 50.04884 | 8.57441 | 363 ft | 0 kts | 218° |
| 2026-05-05 04:18 | 50.04891 | 8.57450 | 364 ft | 2 kts | 218° |
| 2026-05-05 04:18 | 50.04903 | 8.57464 | 364 ft | 2 kts | 218° |
| 2026-05-05 04:18 | 50.04915 | 8.57478 | 364 ft | 2 kts | 218° |
| 2026-05-05 04:19 | 50.04924 | 8.57489 | 364 ft | 0 kts | 218° |
| 2026-05-05 04:19 | 50.04935 | 8.57497 | 364 ft | 2 kts | 174° |
| 2026-05-05 04:19 | 50.04948 | 8.57487 | 364 ft | 1 kts | 123° |
| 2026-05-05 04:19 | 50.04949 | 8.57483 | 364 ft | 1 kts | 115° |
| 2026-05-05 04:20 | 50.04935 | 8.57528 | 364 ft | 7 kts | 114° |
| 2026-05-05 04:20 | 50.04921 | 8.57574 | 364 ft | 2 kts | 114° |
| 2026-05-05 04:20 | 50.04911 | 8.57608 | 365 ft | 4 kts | 117° |
| 2026-05-05 04:20 | 50.04905 | 8.57626 | 365 ft | 0 kts | 116° |
| 2026-05-05 04:21 | 50.04903 | 8.57632 | 365 ft | 0 kts | 115° |
| 2026-05-05 04:23 | 50.04896 | 8.57655 | 365 ft | 4 kts | 114° |
| 2026-05-05 04:23 | 50.04883 | 8.57701 | 365 ft | 5 kts | 114° |
| 2026-05-05 04:23 | 50.04861 | 8.57788 | 366 ft | 11 kts | 112° |
| 2026-05-05 04:23 | 50.04803 | 8.57902 | 367 ft | 15 kts | 153° |
| 2026-05-05 04:24 | 50.04697 | 8.57966 | 367 ft | 16 kts | 159° |
| 2026-05-05 04:24 | 50.04589 | 8.58028 | 367 ft | 16 kts | 172° |
| 2026-05-05 04:24 | 50.04517 | 8.57914 | 366 ft | 16 kts | 250° |
| 2026-05-05 04:25 | 50.04426 | 8.57526 | 363 ft | 21 kts | 251° |
| 2026-05-05 04:25 | 50.04373 | 8.57304 | 361 ft | 23 kts | 250° |
| 2026-05-05 04:25 | 50.04314 | 8.57058 | 359 ft | 25 kts | 250° |
| 2026-05-05 04:25 | 50.04252 | 8.56798 | 357 ft | 26 kts | 250° |
| 2026-05-05 04:26 | 50.04187 | 8.56527 | 355 ft | 26 kts | 250° |
| 2026-05-05 04:26 | 50.04125 | 8.56266 | 353 ft | 25 kts | 250° |
| 2026-05-05 04:26 | 50.04063 | 8.56010 | 352 ft | 24 kts | 250° |
| 2026-05-05 04:26 | 50.04004 | 8.55761 | 351 ft | 24 kts | 250° |
| 2026-05-05 04:27 | 50.03947 | 8.55521 | 349 ft | 23 kts | 250° |
| 2026-05-05 04:27 | 50.03889 | 8.55285 | 348 ft | 23 kts | 250° |
| 2026-05-05 04:27 | 50.03835 | 8.55055 | 347 ft | 22 kts | 250° |
| 2026-05-05 04:27 | 50.03781 | 8.54828 | 346 ft | 22 kts | 250° |
| 2026-05-05 04:28 | 50.03726 | 8.54599 | 344 ft | 22 kts | 250° |
| 2026-05-05 04:28 | 50.03672 | 8.54372 | 343 ft | 22 kts | 250° |
| 2026-05-05 04:28 | 50.03619 | 8.54149 | 342 ft | 21 kts | 250° |
| 2026-05-05 04:28 | 50.03566 | 8.53929 | 340 ft | 21 kts | 250° |
| 2026-05-05 04:29 | 50.03513 | 8.53711 | 339 ft | 21 kts | 250° |
| 2026-05-05 04:29 | 50.03462 | 8.53495 | 339 ft | 21 kts | 250° |
| 2026-05-05 04:29 | 50.03411 | 8.53285 | 338 ft | 20 kts | 250° |
| 2026-05-05 04:29 | 50.03363 | 8.53078 | 337 ft | 20 kts | 250° |
| 2026-05-05 04:30 | 50.03314 | 8.52872 | 336 ft | 20 kts | 251° |
| 2026-05-05 04:30 | 50.03269 | 8.52677 | 336 ft | 15 kts | 264° |
| 2026-05-05 04:30 | 50.03224 | 8.52595 | 336 ft | 15 kts | 184° |
| 2026-05-05 04:30 | 50.02931 | 8.52597 | 335 ft | 77 kts | 180° |
| 2026-05-05 04:31 | 50.02171 | 8.52606 | 333 ft | 140 kts | 180° |
| 2026-05-05 04:31 | 50.01033 | 8.52618 | 433 ft | 178 kts | 179° |
| 2026-05-05 04:31 | 49.99870 | 8.52631 | 1234 ft | 164 kts | 179° |
| 2026-05-05 04:31 | 49.98696 | 8.52692 | 1738 ft | 174 kts | 178° |
| 2026-05-05 04:32 | 49.97474 | 8.52783 | 2281 ft | 182 kts | 177° |
| 2026-05-05 04:32 | 49.96184 | 8.52881 | 2615 ft | 193 kts | 177° |
| 2026-05-05 04:32 | 49.94774 | 8.52986 | 2912 ft | 208 kts | 178° |
| 2026-05-05 04:32 | 49.93292 | 8.53093 | 3190 ft | 224 kts | 178° |
| 2026-05-05 04:33 | 49.91665 | 8.53207 | 3492 ft | 242 kts | 178° |
| 2026-05-05 04:33 | 49.89946 | 8.53326 | 4007 ft | 251 kts | 178° |
| 2026-05-05 04:33 | 49.88208 | 8.53446 | 4681 ft | 254 kts | 178° |
| 2026-05-05 04:33 | 49.86446 | 8.53567 | 5416 ft | 255 kts | 178° |
| 2026-05-05 04:34 | 49.84688 | 8.53688 | 6157 ft | 255 kts | 178° |
| 2026-05-05 04:34 | 49.82930 | 8.53809 | 6878 ft | 257 kts | 178° |
| 2026-05-05 04:34 | 49.81137 | 8.53931 | 7566 ft | 259 kts | 178° |
| 2026-05-05 04:34 | 49.79341 | 8.54053 | 8238 ft | 261 kts | 179° |
| 2026-05-05 04:35 | 49.77521 | 8.54031 | 8915 ft | 263 kts | 184° |
| 2026-05-05 04:35 | 49.75687 | 8.53810 | 9435 ft | 271 kts | 186° |
| 2026-05-05 04:35 | 49.73771 | 8.53555 | 9981 ft | 278 kts | 186° |
| 2026-05-05 04:35 | 49.71813 | 8.53294 | 10442 ft | 288 kts | 186° |
| 2026-05-05 04:36 | 49.69776 | 8.53022 | 10721 ft | 303 kts | 186° |
| 2026-05-05 04:36 | 49.67638 | 8.52736 | 10988 ft | 318 kts | 186° |
| 2026-05-05 04:36 | 49.65378 | 8.52436 | 11329 ft | 330 kts | 186° |
| 2026-05-05 04:36 | 49.63076 | 8.52132 | 11890 ft | 334 kts | 186° |
| 2026-05-05 04:37 | 49.60781 | 8.51830 | 12478 ft | 336 kts | 186° |
| 2026-05-05 04:37 | 49.58431 | 8.51522 | 13052 ft | 339 kts | 186° |
| 2026-05-05 04:37 | 49.56087 | 8.51213 | 13604 ft | 342 kts | 187° |
| 2026-05-05 04:37 | 49.53699 | 8.50899 | 14150 ft | 345 kts | 187° |
| 2026-05-05 04:38 | 49.51305 | 8.50583 | 14678 ft | 348 kts | 187° |
| 2026-05-05 04:38 | 49.48895 | 8.50267 | 15210 ft | 350 kts | 187° |
| 2026-05-05 04:38 | 49.46473 | 8.49948 | 15714 ft | 353 kts | 186° |
| 2026-05-05 04:38 | 49.44017 | 8.49628 | 16230 ft | 355 kts | 186° |
| 2026-05-05 04:39 | 49.41566 | 8.49309 | 16736 ft | 357 kts | 186° |
| 2026-05-05 04:39 | 49.39064 | 8.48983 | 17223 ft | 359 kts | 187° |
| 2026-05-05 04:39 | 49.36575 | 8.48657 | 17715 ft | 361 kts | 186° |
| 2026-05-05 04:39 | 49.34091 | 8.48333 | 18170 ft | 363 kts | 186° |
| 2026-05-05 04:40 | 49.31564 | 8.48004 | 18640 ft | 365 kts | 186° |
| 2026-05-05 04:40 | 49.29019 | 8.47676 | 19082 ft | 368 kts | 186° |
| 2026-05-05 04:40 | 49.26460 | 8.47342 | 19536 ft | 370 kts | 186° |
| 2026-05-05 04:40 | 49.23897 | 8.47009 | 19938 ft | 373 kts | 187° |
| 2026-05-05 04:41 | 49.21314 | 8.46673 | 20365 ft | 375 kts | 187° |
| 2026-05-05 04:41 | 49.18708 | 8.46334 | 20775 ft | 377 kts | 187° |
| 2026-05-05 04:41 | 49.16085 | 8.45994 | 21182 ft | 379 kts | 187° |
| 2026-05-05 04:41 | 49.13454 | 8.45653 | 21569 ft | 381 kts | 187° |
| 2026-05-05 04:42 | 49.10816 | 8.45313 | 22065 ft | 380 kts | 187° |
| 2026-05-05 04:42 | 49.08193 | 8.44943 | 22586 ft | 377 kts | 189° |
| 2026-05-05 04:42 | 49.05608 | 8.44375 | 23070 ft | 375 kts | 192° |
| 2026-05-05 04:42 | 49.03066 | 8.43579 | 23559 ft | 373 kts | 195° |
| 2026-05-05 04:43 | 49.00577 | 8.42708 | 24027 ft | 372 kts | 195° |
| 2026-05-05 04:43 | 48.98050 | 8.41830 | 24420 ft | 373 kts | 195° |
| 2026-05-05 04:43 | 48.95508 | 8.40947 | 24776 ft | 375 kts | 195° |
| 2026-05-05 04:43 | 48.92969 | 8.40066 | 25106 ft | 377 kts | 195° |
| 2026-05-05 04:44 | 48.90401 | 8.39177 | 25482 ft | 378 kts | 195° |
| 2026-05-05 04:44 | 48.87847 | 8.38294 | 25838 ft | 379 kts | 195° |
| 2026-05-05 04:44 | 48.85242 | 8.37390 | 26178 ft | 381 kts | 195° |
| 2026-05-05 04:44 | 48.82659 | 8.36498 | 26515 ft | 382 kts | 195° |
| 2026-05-05 04:45 | 48.80098 | 8.35609 | 26833 ft | 384 kts | 195° |
| 2026-05-05 04:45 | 48.77481 | 8.34690 | 27136 ft | 386 kts | 195° |
| 2026-05-05 04:45 | 48.74878 | 8.33740 | 27462 ft | 387 kts | 195° |
| 2026-05-05 04:45 | 48.72255 | 8.32774 | 27796 ft | 388 kts | 195° |
| 2026-05-05 04:46 | 48.69625 | 8.31808 | 28110 ft | 389 kts | 195° |
| 2026-05-05 04:46 | 48.67007 | 8.30851 | 28385 ft | 391 kts | 195° |
| 2026-05-05 04:46 | 48.64333 | 8.29877 | 28667 ft | 393 kts | 195° |
| 2026-05-05 04:46 | 48.61684 | 8.28914 | 28975 ft | 394 kts | 195° |
| 2026-05-05 04:47 | 48.59036 | 8.27952 | 29262 ft | 395 kts | 195° |
| 2026-05-05 04:47 | 48.56356 | 8.26980 | 29546 ft | 397 kts | 195° |
| 2026-05-05 04:47 | 48.53676 | 8.26008 | 29832 ft | 398 kts | 195° |
| 2026-05-05 04:47 | 48.50986 | 8.25033 | 30105 ft | 399 kts | 195° |
| 2026-05-05 04:48 | 48.48270 | 8.24047 | 30349 ft | 401 kts | 195° |
| 2026-05-05 04:48 | 48.45571 | 8.23060 | 30608 ft | 402 kts | 195° |
| 2026-05-05 04:48 | 48.42827 | 8.22057 | 30875 ft | 403 kts | 195° |
| 2026-05-05 04:48 | 48.40127 | 8.21071 | 31115 ft | 404 kts | 195° |
| 2026-05-05 04:49 | 48.37382 | 8.20072 | 31363 ft | 405 kts | 195° |
| 2026-05-05 04:49 | 48.34642 | 8.19075 | 31614 ft | 406 kts | 195° |
| 2026-05-05 04:49 | 48.31882 | 8.18069 | 31835 ft | 408 kts | 195° |
| 2026-05-05 04:49 | 48.29146 | 8.17041 | 32142 ft | 406 kts | 197° |
| 2026-05-05 04:50 | 48.26459 | 8.15835 | 32504 ft | 404 kts | 199° |
| 2026-05-05 04:50 | 48.23817 | 8.14423 | 32822 ft | 402 kts | 202° |
| 2026-05-05 04:50 | 48.21248 | 8.12827 | 33117 ft | 400 kts | 204° |
| 2026-05-05 04:50 | 48.18753 | 8.11047 | 33470 ft | 397 kts | 206° |
| 2026-05-05 04:51 | 48.16272 | 8.09205 | 33781 ft | 396 kts | 206° |
| 2026-05-05 04:51 | 48.13833 | 8.07410 | 34079 ft | 394 kts | 206° |
| 2026-05-05 04:51 | 48.11374 | 8.05601 | 34371 ft | 393 kts | 206° |
| 2026-05-05 04:51 | 48.08942 | 8.03812 | 34639 ft | 392 kts | 206° |
| 2026-05-05 04:52 | 48.06502 | 8.02023 | 34855 ft | 392 kts | 206° |
| 2026-05-05 04:52 | 48.01540 | 7.98376 | 34894 ft | 399 kts | 206° |
| 2026-05-05 04:53 | 47.96569 | 7.94726 | 34902 ft | 399 kts | 206° |
| 2026-05-05 04:53 | 47.91605 | 7.91095 | 34905 ft | 399 kts | 206° |
| 2026-05-05 04:54 | 47.86605 | 7.87442 | 34905 ft | 399 kts | 206° |
| 2026-05-05 04:54 | 47.81639 | 7.83819 | 34902 ft | 400 kts | 206° |
| 2026-05-05 04:55 | 47.76634 | 7.80180 | 34900 ft | 399 kts | 206° |
| 2026-05-05 04:55 | 47.71679 | 7.76583 | 34902 ft | 399 kts | 206° |
| 2026-05-05 04:56 | 47.66672 | 7.72956 | 34896 ft | 399 kts | 205° |
| 2026-05-05 04:56 | 47.61695 | 7.69358 | 34899 ft | 400 kts | 205° |
| 2026-05-05 04:57 | 47.56681 | 7.65744 | 34901 ft | 401 kts | 205° |
| 2026-05-05 04:57 | 47.51681 | 7.62143 | 34909 ft | 400 kts | 205° |
| 2026-05-05 04:58 | 47.46690 | 7.58558 | 34910 ft | 399 kts | 205° |
| 2026-05-05 04:58 | 47.41698 | 7.54982 | 34922 ft | 401 kts | 205° |
| 2026-05-05 04:58 | 47.39177 | 7.53178 | 35059 ft | 401 kts | 205° |
| 2026-05-05 04:59 | 47.36673 | 7.51387 | 35247 ft | 400 kts | 205° |
| 2026-05-05 04:59 | 47.34174 | 7.49607 | 35386 ft | 401 kts | 205° |
| 2026-05-05 04:59 | 47.31649 | 7.47806 | 35478 ft | 402 kts | 205° |
| 2026-05-05 04:59 | 47.29126 | 7.46012 | 35593 ft | 403 kts | 205° |
| 2026-05-05 05:00 | 47.26627 | 7.44229 | 35718 ft | 404 kts | 205° |
| 2026-05-05 05:00 | 47.21647 | 7.40390 | 35922 ft | 406 kts | 210° |
| 2026-05-05 05:00 | 47.19277 | 7.38116 | 36028 ft | 407 kts | 213° |
| 2026-05-05 05:01 | 47.17038 | 7.35642 | 36122 ft | 408 kts | 217° |
| 2026-05-05 05:01 | 47.12860 | 7.29959 | 36250 ft | 413 kts | 224° |
| 2026-05-05 05:02 | 47.09148 | 7.23477 | 36413 ft | 415 kts | 228° |
| 2026-05-05 05:02 | 47.05563 | 7.16884 | 36542 ft | 417 kts | 229° |
| 2026-05-05 05:03 | 47.01954 | 7.10265 | 36733 ft | 418 kts | 229° |
| 2026-05-05 05:03 | 47.00124 | 7.06913 | 36835 ft | 418 kts | 229° |
| 2026-05-05 05:03 | 46.98327 | 7.03633 | 36917 ft | 419 kts | 229° |
| 2026-05-05 05:04 | 46.94663 | 6.96952 | 36907 ft | 420 kts | 228° |
| 2026-05-05 05:04 | 46.90786 | 6.90660 | 36913 ft | 418 kts | 223° |
| 2026-05-05 05:05 | 46.86460 | 6.85012 | 36920 ft | 417 kts | 218° |
| 2026-05-05 05:05 | 46.81980 | 6.79667 | 36908 ft | 417 kts | 218° |
| 2026-05-05 05:06 | 46.77496 | 6.74327 | 36911 ft | 417 kts | 218° |
| 2026-05-05 05:06 | 46.73015 | 6.69003 | 36925 ft | 416 kts | 218° |
| 2026-05-05 05:07 | 46.68549 | 6.63714 | 36928 ft | 415 kts | 218° |
| 2026-05-05 05:07 | 46.64079 | 6.58432 | 36917 ft | 416 kts | 218° |
| 2026-05-05 05:08 | 46.59587 | 6.53134 | 36925 ft | 415 kts | 218° |
| 2026-05-05 05:08 | 46.55079 | 6.47834 | 36915 ft | 416 kts | 217° |
| 2026-05-05 05:09 | 46.50595 | 6.42570 | 36921 ft | 415 kts | 218° |
| 2026-05-05 05:09 | 46.46107 | 6.37316 | 36914 ft | 416 kts | 218° |
| 2026-05-05 05:10 | 46.41608 | 6.32061 | 36909 ft | 416 kts | 217° |
| 2026-05-05 05:10 | 46.37143 | 6.26853 | 36911 ft | 415 kts | 217° |
| 2026-05-05 05:11 | 46.32636 | 6.21617 | 36913 ft | 416 kts | 216° |
| 2026-05-05 05:11 | 46.27842 | 6.17017 | 36915 ft | 414 kts | 208° |
| 2026-05-05 05:12 | 46.22588 | 6.13585 | 36915 ft | 413 kts | 199° |
| 2026-05-05 05:12 | 46.17071 | 6.11424 | 36917 ft | 413 kts | 191° |
| 2026-05-05 05:13 | 46.11387 | 6.10110 | 36916 ft | 413 kts | 189° |
| 2026-05-05 05:13 | 46.05736 | 6.08847 | 36910 ft | 413 kts | 189° |
| 2026-05-05 05:14 | 46.00051 | 6.07582 | 36921 ft | 414 kts | 189° |
| 2026-05-05 05:14 | 45.94354 | 6.06322 | 36926 ft | 413 kts | 189° |
| 2026-05-05 05:15 | 45.88723 | 6.05078 | 36926 ft | 412 kts | 189° |
| 2026-05-05 05:15 | 45.83056 | 6.03824 | 36928 ft | 413 kts | 190° |
| 2026-05-05 05:16 | 45.77362 | 6.02561 | 36929 ft | 412 kts | 190° |
| 2026-05-05 05:16 | 45.71728 | 6.01317 | 36926 ft | 412 kts | 190° |
| 2026-05-05 05:17 | 45.66074 | 6.00071 | 36913 ft | 413 kts | 189° |
| 2026-05-05 05:17 | 45.60365 | 5.98821 | 36921 ft | 413 kts | 190° |
| 2026-05-05 05:18 | 45.54690 | 5.97581 | 36915 ft | 413 kts | 190° |
| 2026-05-05 05:18 | 45.49033 | 5.96340 | 36919 ft | 412 kts | 191° |
| 2026-05-05 05:19 | 45.43409 | 5.94681 | 36927 ft | 412 kts | 193° |
| 2026-05-05 05:19 | 45.37849 | 5.92946 | 36924 ft | 412 kts | 193° |
| 2026-05-05 05:20 | 45.32253 | 5.91206 | 36928 ft | 411 kts | 194° |
| 2026-05-05 05:20 | 45.26673 | 5.89472 | 36922 ft | 410 kts | 194° |
| 2026-05-05 05:21 | 45.21115 | 5.87746 | 36915 ft | 411 kts | 194° |
| 2026-05-05 05:21 | 45.15518 | 5.86010 | 36923 ft | 411 kts | 194° |
| 2026-05-05 05:22 | 45.09913 | 5.84276 | 36925 ft | 410 kts | 194° |
| 2026-05-05 05:22 | 45.04336 | 5.82552 | 36929 ft | 411 kts | 194° |
| 2026-05-05 05:23 | 44.98761 | 5.80832 | 36935 ft | 411 kts | 194° |
| 2026-05-05 05:23 | 44.93189 | 5.79120 | 36928 ft | 411 kts | 194° |
| 2026-05-05 05:24 | 44.87632 | 5.77415 | 36931 ft | 411 kts | 194° |
| 2026-05-05 05:24 | 44.82037 | 5.75700 | 36933 ft | 411 kts | 194° |
| 2026-05-05 05:25 | 44.76473 | 5.74000 | 36933 ft | 411 kts | 194° |
| 2026-05-05 05:25 | 44.70885 | 5.72294 | 36932 ft | 411 kts | 194° |
| 2026-05-05 05:26 | 44.65320 | 5.70600 | 36927 ft | 411 kts | 194° |
| 2026-05-05 05:26 | 44.59744 | 5.68907 | 36927 ft | 411 kts | 195° |
| 2026-05-05 05:27 | 44.54127 | 5.67203 | 36926 ft | 411 kts | 195° |
| 2026-05-05 05:27 | 44.45788 | 5.64682 | 36926 ft | 411 kts | 195° |
| 2026-05-05 05:28 | 44.40193 | 5.62926 | 36923 ft | 410 kts | 197° |
| 2026-05-05 05:28 | 44.34775 | 5.60530 | 36923 ft | 409 kts | 203° |
| 2026-05-05 05:29 | 44.29496 | 5.57643 | 36923 ft | 409 kts | 204° |
| 2026-05-05 05:29 | 44.24196 | 5.54756 | 36923 ft | 409 kts | 204° |
| 2026-05-05 05:30 | 44.18892 | 5.51867 | 36906 ft | 408 kts | 204° |
| 2026-05-05 05:30 | 44.13607 | 5.48988 | 36908 ft | 408 kts | 204° |
| 2026-05-05 05:31 | 44.08348 | 5.46128 | 36903 ft | 408 kts | 204° |
| 2026-05-05 05:31 | 44.03015 | 5.43235 | 36893 ft | 408 kts | 204° |
| 2026-05-05 05:32 | 43.97720 | 5.40367 | 36898 ft | 407 kts | 204° |
| 2026-05-05 05:32 | 43.92431 | 5.37496 | 36905 ft | 408 kts | 204° |
| 2026-05-05 05:33 | 43.87250 | 5.34695 | 36899 ft | 408 kts | 204° |
| 2026-05-05 05:33 | 43.81986 | 5.31852 | 36909 ft | 408 kts | 204° |
| 2026-05-05 05:34 | 43.77384 | 5.29376 | 36910 ft | 407 kts | 204° |
| 2026-05-05 05:34 | 43.72097 | 5.26530 | 36914 ft | 407 kts | 204° |
| 2026-05-05 05:35 | 43.66819 | 5.23700 | 36915 ft | 406 kts | 204° |
| 2026-05-05 05:35 | 43.61528 | 5.20868 | 36916 ft | 405 kts | 204° |
| 2026-05-05 05:36 | 43.56279 | 5.18063 | 36916 ft | 405 kts | 204° |
| 2026-05-05 05:36 | 43.51023 | 5.15260 | 36917 ft | 404 kts | 205° |
| 2026-05-05 05:37 | 43.45795 | 5.12477 | 36917 ft | 404 kts | 205° |
| 2026-05-05 05:37 | 43.40635 | 5.09471 | 36918 ft | 401 kts | 209° |
| 2026-05-05 05:38 | 43.35783 | 5.05827 | 36916 ft | 398 kts | 214° |
| 2026-05-05 05:38 | 43.31162 | 5.01588 | 36916 ft | 397 kts | 217° |
| 2026-05-05 05:39 | 43.26627 | 4.97338 | 36917 ft | 397 kts | 217° |
| 2026-05-05 05:39 | 43.22060 | 4.93056 | 36915 ft | 396 kts | 217° |
| 2026-05-05 05:40 | 43.17537 | 4.88820 | 36917 ft | 396 kts | 217° |
| 2026-05-05 05:40 | 43.12997 | 4.84570 | 36913 ft | 396 kts | 217° |
| 2026-05-05 05:41 | 43.08456 | 4.80326 | 36919 ft | 395 kts | 217° |
| 2026-05-05 05:41 | 43.03827 | 4.76334 | 36917 ft | 396 kts | 213° |
| 2026-05-05 05:42 | 42.98994 | 4.72661 | 36916 ft | 396 kts | 213° |
| 2026-05-05 05:42 | 42.94207 | 4.69020 | 36912 ft | 396 kts | 213° |
| 2026-05-05 05:43 | 42.89491 | 4.65446 | 36920 ft | 395 kts | 213° |
| 2026-05-05 05:43 | 42.84690 | 4.61816 | 36922 ft | 396 kts | 213° |
| 2026-05-05 05:44 | 42.79858 | 4.58172 | 36924 ft | 395 kts | 213° |
| 2026-05-05 05:44 | 42.75051 | 4.54554 | 36921 ft | 396 kts | 213° |
| 2026-05-05 05:45 | 42.70260 | 4.50954 | 36921 ft | 395 kts | 213° |
| 2026-05-05 05:45 | 42.65466 | 4.47360 | 36923 ft | 395 kts | 213° |
| 2026-05-05 05:46 | 42.60640 | 4.43746 | 36923 ft | 396 kts | 213° |
| 2026-05-05 05:46 | 42.58962 | 4.42493 | 36929 ft | 396 kts | 213° |
| 2026-05-05 05:47 | 42.54155 | 4.38902 | 36922 ft | 395 kts | 213° |
| 2026-05-05 05:47 | 42.49364 | 4.35330 | 36922 ft | 395 kts | 213° |
| 2026-05-05 05:48 | 42.44536 | 4.31740 | 36924 ft | 396 kts | 212° |
| 2026-05-05 05:48 | 42.39704 | 4.28151 | 36928 ft | 396 kts | 212° |
| 2026-05-05 05:49 | 42.34890 | 4.24583 | 36928 ft | 396 kts | 212° |
| 2026-05-05 05:49 | 42.30071 | 4.21015 | 36945 ft | 397 kts | 212° |
| 2026-05-05 05:50 | 42.25234 | 4.17442 | 36943 ft | 397 kts | 212° |
| 2026-05-05 05:50 | 42.20375 | 4.13862 | 36945 ft | 397 kts | 212° |
| 2026-05-05 05:51 | 42.15556 | 4.10314 | 36937 ft | 397 kts | 212° |
| 2026-05-05 05:51 | 42.10699 | 4.06742 | 36930 ft | 398 kts | 212° |
| 2026-05-05 05:52 | 42.05870 | 4.03200 | 36931 ft | 397 kts | 212° |
| 2026-05-05 05:52 | 42.01006 | 3.99640 | 36936 ft | 397 kts | 212° |
| 2026-05-05 05:53 | 41.96039 | 3.96329 | 36944 ft | 400 kts | 207° |
| 2026-05-05 05:53 | 41.90839 | 3.93708 | 36935 ft | 403 kts | 202° |
| 2026-05-05 05:54 | 41.85356 | 3.91783 | 36928 ft | 407 kts | 197° |
| 2026-05-05 05:54 | 41.79786 | 3.90456 | 36942 ft | 409 kts | 195° |
| 2026-05-05 05:55 | 41.74192 | 3.89152 | 36942 ft | 409 kts | 195° |
| 2026-05-05 05:55 | 41.68587 | 3.87856 | 36944 ft | 409 kts | 195° |
| 2026-05-05 05:56 | 41.62993 | 3.86569 | 36956 ft | 409 kts | 195° |
| 2026-05-05 05:56 | 41.57383 | 3.85277 | 36953 ft | 410 kts | 195° |
| 2026-05-05 05:57 | 41.51775 | 3.83986 | 36954 ft | 409 kts | 195° |
| 2026-05-05 05:57 | 41.46163 | 3.82699 | 36961 ft | 409 kts | 195° |
| 2026-05-05 05:58 | 41.40569 | 3.81420 | 36956 ft | 409 kts | 195° |
| 2026-05-05 05:58 | 41.34982 | 3.80146 | 36963 ft | 409 kts | 195° |
| 2026-05-05 05:59 | 41.29350 | 3.78865 | 36953 ft | 410 kts | 195° |
| 2026-05-05 05:59 | 41.23753 | 3.77595 | 36955 ft | 410 kts | 195° |
| 2026-05-05 06:00 | 41.18211 | 3.76262 | 36497 ft | 402 kts | 198° |
| 2026-05-05 06:00 | 41.15503 | 3.75374 | 35819 ft | 402 kts | 201° |
| 2026-05-05 06:00 | 41.12815 | 3.74285 | 35132 ft | 402 kts | 204° |
| 2026-05-05 06:01 | 41.10189 | 3.73016 | 34487 ft | 402 kts | 206° |
| 2026-05-05 06:01 | 41.07628 | 3.71689 | 33823 ft | 401 kts | 206° |
| 2026-05-05 06:01 | 41.05016 | 3.70350 | 33091 ft | 402 kts | 206° |
| 2026-05-05 06:01 | 41.02419 | 3.69020 | 32275 ft | 404 kts | 206° |
| 2026-05-05 06:02 | 40.99810 | 3.67681 | 31447 ft | 406 kts | 206° |
| 2026-05-05 06:02 | 40.97156 | 3.66320 | 30606 ft | 407 kts | 206° |
| 2026-05-05 06:02 | 40.94527 | 3.64971 | 29773 ft | 409 kts | 206° |
| 2026-05-05 06:02 | 40.91888 | 3.63615 | 28927 ft | 410 kts | 206° |
| 2026-05-05 06:03 | 40.89237 | 3.62254 | 28046 ft | 413 kts | 206° |
| 2026-05-05 06:03 | 40.86564 | 3.60883 | 27187 ft | 414 kts | 206° |
| 2026-05-05 06:03 | 40.83907 | 3.59525 | 26594 ft | 409 kts | 206° |
| 2026-05-05 06:03 | 40.81261 | 3.58175 | 26007 ft | 404 kts | 206° |
| 2026-05-05 06:04 | 40.78676 | 3.56856 | 25388 ft | 400 kts | 206° |
| 2026-05-05 06:04 | 40.76100 | 3.55542 | 24750 ft | 397 kts | 207° |
| 2026-05-05 06:04 | 40.73529 | 3.54231 | 24140 ft | 393 kts | 207° |
| 2026-05-05 06:04 | 40.71024 | 3.52955 | 23528 ft | 389 kts | 206° |
| 2026-05-05 06:05 | 40.68496 | 3.51666 | 22898 ft | 386 kts | 206° |
| 2026-05-05 06:05 | 40.66031 | 3.50412 | 22359 ft | 381 kts | 206° |
| 2026-05-05 06:05 | 40.63570 | 3.49164 | 22006 ft | 372 kts | 206° |
| 2026-05-05 06:05 | 40.61162 | 3.47942 | 21484 ft | 369 kts | 206° |
| 2026-05-05 06:06 | 40.58813 | 3.46748 | 20890 ft | 367 kts | 206° |
| 2026-05-05 06:06 | 40.56440 | 3.45542 | 20303 ft | 365 kts | 206° |
| 2026-05-05 06:06 | 40.54065 | 3.44338 | 19718 ft | 364 kts | 206° |
| 2026-05-05 06:06 | 40.51718 | 3.43149 | 19140 ft | 362 kts | 206° |
| 2026-05-05 06:07 | 40.49384 | 3.41968 | 18560 ft | 361 kts | 206° |
| 2026-05-05 06:07 | 40.47049 | 3.40789 | 18130 ft | 359 kts | 205° |
| 2026-05-05 06:07 | 40.44645 | 3.39865 | 17753 ft | 364 kts | 197° |
| 2026-05-05 06:07 | 40.42108 | 3.39425 | 17376 ft | 368 kts | 188° |
| 2026-05-05 06:08 | 40.39556 | 3.39438 | 17004 ft | 369 kts | 183° |
| 2026-05-05 06:08 | 40.36977 | 3.39579 | 16629 ft | 367 kts | 182° |
| 2026-05-05 06:08 | 40.34465 | 3.39735 | 16262 ft | 365 kts | 182° |
| 2026-05-05 06:08 | 40.31910 | 3.39890 | 15881 ft | 363 kts | 182° |
| 2026-05-05 06:09 | 40.29397 | 3.40039 | 15507 ft | 361 kts | 182° |
| 2026-05-05 06:09 | 40.26915 | 3.40185 | 15137 ft | 359 kts | 182° |
| 2026-05-05 06:09 | 40.24432 | 3.40328 | 14765 ft | 357 kts | 182° |
| 2026-05-05 06:09 | 40.21943 | 3.40471 | 14390 ft | 355 kts | 182° |
| 2026-05-05 06:10 | 40.19493 | 3.40611 | 14030 ft | 353 kts | 182° |
| 2026-05-05 06:10 | 40.17060 | 3.40752 | 13682 ft | 346 kts | 182° |
| 2026-05-05 06:10 | 40.14677 | 3.40890 | 13420 ft | 336 kts | 182° |
| 2026-05-05 06:10 | 40.12415 | 3.41023 | 13289 ft | 323 kts | 182° |
| 2026-05-05 06:11 | 40.10191 | 3.41153 | 13160 ft | 310 kts | 182° |
| 2026-05-05 06:11 | 40.08076 | 3.41273 | 13031 ft | 298 kts | 182° |
| 2026-05-05 06:11 | 40.06044 | 3.41389 | 12905 ft | 289 kts | 182° |
| 2026-05-05 06:11 | 40.04061 | 3.41382 | 12710 ft | 282 kts | 193° |
| 2026-05-05 06:12 | 40.02226 | 3.40586 | 12294 ft | 276 kts | 212° |
| 2026-05-05 06:12 | 40.00676 | 3.39137 | 11889 ft | 273 kts | 220° |
| 2026-05-05 06:12 | 39.99210 | 3.37618 | 11506 ft | 272 kts | 220° |
| 2026-05-05 06:12 | 39.97739 | 3.36094 | 11123 ft | 270 kts | 220° |
| 2026-05-05 06:13 | 39.96257 | 3.34566 | 10738 ft | 269 kts | 219° |
| 2026-05-05 06:13 | 39.94801 | 3.33072 | 10356 ft | 268 kts | 219° |
| 2026-05-05 06:13 | 39.93337 | 3.31573 | 9966 ft | 267 kts | 218° |
| 2026-05-05 06:13 | 39.91883 | 3.30087 | 9583 ft | 265 kts | 218° |
| 2026-05-05 06:14 | 39.90438 | 3.28613 | 9180 ft | 265 kts | 218° |
| 2026-05-05 06:14 | 39.88986 | 3.27133 | 8772 ft | 265 kts | 218° |
| 2026-05-05 06:14 | 39.87545 | 3.25666 | 8366 ft | 265 kts | 218° |
| 2026-05-05 06:14 | 39.86085 | 3.24180 | 7969 ft | 264 kts | 218° |
| 2026-05-05 06:15 | 39.84649 | 3.22720 | 7588 ft | 264 kts | 218° |
| 2026-05-05 06:15 | 39.83202 | 3.21249 | 7211 ft | 262 kts | 218° |
| 2026-05-05 06:15 | 39.81764 | 3.19788 | 6823 ft | 262 kts | 218° |
| 2026-05-05 06:15 | 39.80339 | 3.18340 | 6446 ft | 261 kts | 218° |
| 2026-05-05 06:16 | 39.78920 | 3.16900 | 6073 ft | 260 kts | 218° |
| 2026-05-05 06:16 | 39.77484 | 3.15444 | 5701 ft | 259 kts | 218° |
| 2026-05-05 06:16 | 39.76085 | 3.14027 | 5452 ft | 252 kts | 218° |
| 2026-05-05 06:16 | 39.74725 | 3.12649 | 5282 ft | 244 kts | 218° |
| 2026-05-05 06:17 | 39.73416 | 3.11325 | 5085 ft | 237 kts | 218° |
| 2026-05-05 06:17 | 39.72123 | 3.10016 | 4771 ft | 235 kts | 218° |
| 2026-05-05 06:17 | 39.70937 | 3.08565 | 4503 ft | 234 kts | 229° |
| 2026-05-05 06:17 | 39.69966 | 3.06848 | 4489 ft | 237 kts | 237° |
| 2026-05-05 06:18 | 39.69137 | 3.05011 | 4485 ft | 237 kts | 239° |
| 2026-05-05 06:18 | 39.68324 | 3.03161 | 4467 ft | 227 kts | 239° |
| 2026-05-05 06:18 | 39.67548 | 3.01450 | 4354 ft | 217 kts | 238° |
| 2026-05-05 06:18 | 39.66774 | 2.99791 | 4093 ft | 214 kts | 238° |
| 2026-05-05 06:19 | 39.66006 | 2.98172 | 3815 ft | 212 kts | 237° |
| 2026-05-05 06:19 | 39.65233 | 2.96556 | 3536 ft | 210 kts | 238° |
| 2026-05-05 06:19 | 39.64458 | 2.94938 | 3256 ft | 208 kts | 238° |
| 2026-05-05 06:19 | 39.63701 | 2.93356 | 3018 ft | 204 kts | 238° |
| 2026-05-05 06:20 | 39.62977 | 2.91840 | 2816 ft | 196 kts | 238° |
| 2026-05-05 06:20 | 39.62266 | 2.90348 | 2522 ft | 191 kts | 238° |
| 2026-05-05 06:20 | 39.61594 | 2.88933 | 2243 ft | 182 kts | 237° |
| 2026-05-05 06:20 | 39.60945 | 2.87566 | 1982 ft | 174 kts | 237° |
| 2026-05-05 06:21 | 39.60307 | 2.86224 | 1763 ft | 179 kts | 237° |
| 2026-05-05 06:21 | 39.59661 | 2.84862 | 1567 ft | 170 kts | 237° |
| 2026-05-05 06:21 | 39.59063 | 2.83600 | 1319 ft | 159 kts | 237° |
| 2026-05-05 06:21 | 39.58501 | 2.82416 | 1109 ft | 154 kts | 237° |
| 2026-05-05 06:22 | 39.57937 | 2.81226 | 924 ft | 154 kts | 238° |
| 2026-05-05 06:22 | 39.57380 | 2.80051 | 729 ft | 153 kts | 238° |
| 2026-05-05 06:22 | 39.56830 | 2.78889 | 529 ft | 152 kts | 238° |
| 2026-05-05 06:22 | 39.56279 | 2.77717 | 311 ft | 151 kts | 238° |
| 2026-05-05 06:23 | 39.55735 | 2.76573 | 117 ft | 150 kts | 238° |
| 2026-05-05 06:23 | 39.55204 | 2.75452 | 22 ft | 136 kts | 238° |
| 2026-05-05 06:23 | 39.54760 | 2.74515 | 25 ft | 95 kts | 239° |
| 2026-05-05 06:23 | 39.54570 | 2.74055 | 37 ft | 34 kts | 254° |
| 2026-05-05 06:24 | 39.54549 | 2.73820 | 35 ft | 17 kts | 270° |
| 2026-05-05 06:24 | 39.54590 | 2.73747 | 35 ft | 9 kts | 15° |
| 2026-05-05 06:24 | 39.54637 | 2.73813 | 36 ft | 10 kts | 59° |
| 2026-05-05 06:24 | 39.54675 | 2.73895 | 36 ft | 10 kts | 59° |
| 2026-05-05 06:25 | 39.54715 | 2.73982 | 36 ft | 11 kts | 58° |
| 2026-05-05 06:25 | 39.54763 | 2.74082 | 34 ft | 12 kts | 57° |
| 2026-05-05 06:25 | 39.54826 | 2.74126 | 33 ft | 10 kts | 345° |
| 2026-05-05 06:25 | 39.54881 | 2.74085 | 35 ft | 8 kts | 329° |
| 2026-05-05 06:26 | 39.54919 | 2.74056 | 38 ft | 4 kts | 329° |
| 2026-05-05 06:26 | 39.54942 | 2.74037 | 39 ft | 4 kts | 328° |
| 2026-05-05 06:26 | 39.54973 | 2.74012 | 40 ft | 7 kts | 328° |
| 2026-05-05 06:26 | 39.55030 | 2.73966 | 42 ft | 11 kts | 328° |
| 2026-05-05 06:27 | 39.55109 | 2.73905 | 44 ft | 14 kts | 329° |
| 2026-05-05 06:27 | 39.55168 | 2.73769 | 45 ft | 8 kts | 278° |
| 2026-05-05 06:27 | 39.55177 | 2.73696 | 45 ft | 8 kts | 249° |
| 2026-05-05 06:28 | 39.55176 | 2.73641 | 45 ft | 5 kts | 305° |
| 2026-05-05 06:28 | 39.55177 | 2.73594 | 44 ft | 6 kts | 245° |
| 2026-05-05 06:28 | 39.55146 | 2.73528 | 41 ft | 11 kts | 240° |
| 2026-05-05 06:28 | 39.55098 | 2.73424 | 32 ft | 15 kts | 239° |
| 2026-05-05 06:29 | 39.55051 | 2.73365 | 28 ft | 3 kts | 160° |
| 2026-05-05 06:29 | 39.55030 | 2.73375 | 29 ft | 2 kts | 164° |
| 2026-05-05 06:29 | 39.55005 | 2.73383 | 29 ft | 4 kts | 167° |
| 2026-05-05 06:29 | 39.54984 | 2.73390 | 29 ft | 0 kts | 167° |